Morro da Fumaca, Brazil
Current Conditions -  °F | °C
As of 6:00 AM on Sunday 28 Dec 2014 (Local Time) from SBFL Reporting Station
Few Clouds Few Clouds  
Wind Chill: 75°   Ceiling: Unl
Heat Index: 75°   Visibility: 6mi
Dew Point: 72°   Wind: 5mph
Humidity: 89%   Direction: 300°WNW
Pressure: 29.8"   Gusts: NA
Location:  28.71°S, 49.3°W
Report Text: SBFL 280800Z 30004KT 9999 FEW002 24/22 Q1009
Loading
Personal Weather Stations






























Interactive Weather Map New forecast layout! Learn more

10-Day Weather Forecast

Advertisements
Track Severe Weather on mobile